Time;durP1;ratioP1;P1;durP2;ratioP2;P2;SDS_P1;SDS_P2;PMS_P1;PMS_P2;Temp;Humidity;BMP_temperature;BMP_pressure;BME280_temperature;BME280_humidity;BME280_pressure;Samples;Min_cycle;Max_cycle;Signal;HPM_P1;HPM_P2
2023/01/11 00:00:30;;;;;;;3.42;3.13;;;8.10;99.90;;;;;;5076953;28;20131;-86
2023/01/11 00:03:01;;;;;;;3.83;2.85;;;8.10;99.90;;;;;;5081167;28;20067;-80
2023/01/11 00:05:27;;;;;;;3.50;2.75;;;8.10;99.90;;;;;;5078688;28;20104;-78
2023/01/11 00:07:52;;;;;;;4.22;3.63;;;8.20;99.90;;;;;;5065019;28;20063;-78
2023/01/11 00:10:19;;;;;;;3.53;2.83;;;8.20;99.90;;;;;;5078733;28;20415;-81
2023/01/11 00:12:45;;;;;;;3.50;2.95;;;8.20;99.90;;;;;;5048173;28;20055;-78
2023/01/11 00:15:12;;;;;;;3.10;2.55;;;8.20;99.90;;;;;;5079136;28;20051;-82
2023/01/11 00:17:38;;;;;;;3.10;2.70;;;8.20;99.90;;;;;;5081600;28;20134;-78
2023/01/11 00:20:05;;;;;;;4.50;3.70;;;8.30;99.90;;;;;;5064365;28;20060;-76
2023/01/11 00:22:30;;;;;;;3.17;2.80;;;8.30;99.90;;;;;;5062826;28;20104;-80
2023/01/11 00:24:56;;;;;;;4.85;3.50;;;8.30;99.90;;;;;;5081932;28;20095;-77
2023/01/11 00:27:22;;;;;;;3.75;3.22;;;8.30;99.90;;;;;;5079404;28;20041;-78
2023/01/11 00:29:48;;;;;;;4.20;2.88;;;8.30;99.90;;;;;;5081341;28;20048;-78
2023/01/11 00:32:13;;;;;;;3.92;2.50;;;8.30;99.90;;;;;;5079056;28;20063;-81
2023/01/11 00:34:39;;;;;;;3.47;3.00;;;8.40;99.90;;;;;;5082302;28;20504;-80
2023/01/11 00:37:04;;;;;;;4.28;3.33;;;8.40;99.90;;;;;;5080312;28;20429;-79
2023/01/11 00:39:30;;;;;;;3.60;2.90;;;8.50;99.90;;;;;;5078400;28;20037;-77
2023/01/11 00:50:09;;;;;;;3.20;2.65;;;8.50;99.90;;;;;;5061784;28;20048;-77
2023/01/11 00:52:35;;;;;;;3.15;2.38;;;8.60;99.90;;;;;;5045391;28;20040;-78
2023/01/11 00:55:00;;;;;;;3.50;2.70;;;8.60;99.90;;;;;;5080760;28;20094;-81
2023/01/11 00:57:26;;;;;;;4.03;2.85;;;8.60;99.90;;;;;;5076896;28;20059;-78
2023/01/11 00:59:51;;;;;;;3.70;3.13;;;8.60;99.90;;;;;;5081134;28;20044;-78
2023/01/11 01:02:17;;;;;;;3.08;2.67;;;8.70;99.90;;;;;;5078485;28;20040;-80
2023/01/11 01:04:43;;;;;;;3.78;3.17;;;8.70;99.90;;;;;;5046883;28;20037;-78
2023/01/11 01:07:10;;;;;;;3.67;3.00;;;8.70;99.90;;;;;;5063335;28;20048;-76
2023/01/11 01:09:36;;;;;;;3.65;2.95;;;8.80;99.90;;;;;;5078246;28;20053;-83
2023/01/11 01:12:02;;;;;;;3.95;2.72;;;8.80;99.90;;;;;;5080381;28;20050;-79
2023/01/11 01:14:28;;;;;;;3.10;2.30;;;8.90;99.90;;;;;;5077791;28;20124;-76
2023/01/11 01:17:01;;;;;;;4.75;3.08;;;8.90;99.90;;;;;;5063756;28;20075;-78
2023/01/11 01:19:28;;;;;;;3.83;2.67;;;9.00;99.90;;;;;;5078108;28;20104;-83
2023/01/11 01:21:56;;;;;;;3.50;3.10;;;8.90;99.90;;;;;;5063004;28;20044;-80
2023/01/11 01:24:22;;;;;;;3.35;2.55;;;8.90;99.90;;;;;;5079483;28;20059;-76
2023/01/11 01:26:48;;;;;;;3.50;2.40;;;9.00;99.90;;;;;;5076298;28;20068;-81
2023/01/11 01:29:14;;;;;;;3.30;2.70;;;9.00;99.90;;;;;;5079983;28;20060;-77
2023/01/11 01:31:41;;;;;;;3.10;2.70;;;9.00;99.90;;;;;;5060582;28;20060;-81
2023/01/11 01:34:08;;;;;;;3.10;2.22;;;9.00;99.90;;;;;;5063572;28;20052;-78
2023/01/11 01:36:34;;;;;;;3.22;2.63;;;9.00;99.90;;;;;;5061947;28;20419;-79
2023/01/11 01:39:00;;;;;;;4.18;2.88;;;9.10;99.90;;;;;;5079569;28;20053;-77
2023/01/11 01:41:26;;;;;;;3.45;2.80;;;9.10;99.90;;;;;;5079463;28;20105;-78
2023/01/11 01:43:54;;;;;;;3.80;3.17;;;9.10;99.90;;;;;;5075876;28;20612;-76
2023/01/11 01:46:22;;;;;;;4.13;2.80;;;9.10;99.90;;;;;;5079416;28;20048;-78
2023/01/11 01:48:56;;;;;;;3.22;2.30;;;9.10;99.90;;;;;;5076825;28;20036;-78
2023/01/11 01:51:43;;;;;;;2.97;2.67;;;9.10;99.90;;;;;;5079732;28;20044;-79
2023/01/11 01:54:13;;;;;;;3.47;2.88;;;9.10;99.90;;;;;;5080234;28;20041;-80
2023/01/11 01:56:50;;;;;;;3.80;2.80;;;9.10;99.90;;;;;;5078413;28;20455;-79
2023/01/11 01:59:16;;;;;;;;;;;9.10;99.90;;;;;;5080166;28;20063;-77
2023/01/11 02:01:47;;;;;;;3.50;2.50;;;9.10;99.90;;;;;;5076416;28;19928;-76
2023/01/11 02:04:24;;;;;;;4.22;2.75;;;9.10;99.90;;;;;;5063817;28;20080;-78
2023/01/11 02:07:00;;;;;;;3.50;2.58;;;9.10;99.90;;;;;;5078019;28;20052;-80
2023/01/11 02:09:35;;;;;;;4.43;2.97;;;9.10;99.90;;;;;;5076245;28;20044;-77
2023/01/11 02:12:03;;;;;;;4.07;2.70;;;9.10;99.90;;;;;;5079104;28;20055;-80
2023/01/11 02:14:30;;;;;;;4.38;2.90;;;9.10;99.90;;;;;;5077828;28;20079;-78
2023/01/11 02:16:56;;;;;;;4.43;3.35;;;9.10;99.90;;;;;;5079202;28;20055;-75
2023/01/11 02:19:34;;;;;;;4.13;3.00;;;9.10;99.90;;;;;;5060302;28;20048;-77
2023/01/11 02:22:25;;;;;;;3.67;3.00;;;9.20;99.90;;;;;;5079513;28;20045;-77
2023/01/11 02:25:16;;;;;;;4.45;3.38;;;9.20;99.90;;;;;;5075956;28;20606;-78
2023/01/11 02:27:57;;;;;;;4.25;2.90;;;9.20;99.90;;;;;;5075865;28;20407;-76
2023/01/11 02:30:32;;;;;;;5.53;3.17;;;9.20;99.90;;;;;;5078296;28;20508;-81
2023/01/11 02:33:10;;;;;;;4.53;2.88;;;9.30;99.90;;;;;;5078110;28;20045;-78
2023/01/11 02:36:31;;;;;;;4.28;3.05;;;9.30;99.90;;;;;;5076340;28;20040;-79
2023/01/11 02:39:45;;;;;;;4.43;3.20;;;9.30;99.90;;;;;;5024663;28;20064;-77
2023/01/11 02:45:49;;;;;;;3.63;2.97;;;9.30;99.90;;;;;;5072873;28;20049;-81
2023/01/11 02:48:36;;;;;;;4.82;3.13;;;9.40;99.90;;;;;;5065096;28;20094;-81
2023/01/11 02:51:12;;;;;;;3.58;2.70;;;9.40;99.90;;;;;;5062033;28;20412;-78
2023/01/11 02:53:48;;;;;;;4.28;2.33;;;9.40;99.90;;;;;;5059524;28;20091;-77
2023/01/11 02:56:19;;;;;;;3.88;2.78;;;9.40;99.90;;;;;;5061137;28;20045;-76
2023/01/11 02:58:49;;;;;;;4.85;2.70;;;9.40;99.90;;;;;;5076298;28;20052;-81
2023/01/11 03:01:15;;;;;;;4.25;2.53;;;9.50;99.90;;;;;;5052450;28;20115;-82
2023/01/11 03:03:41;;;;;;;3.13;2.58;;;9.50;99.90;;;;;;5078037;28;20052;-83
2023/01/11 03:06:44;;;;;;;2.65;2.00;;;9.50;99.90;;;;;;5075827;28;20040;-82
2023/01/11 03:09:46;;;;;;;3.85;2.50;;;9.60;99.90;;;;;;5046241;28;20499;-77
2023/01/11 03:15:23;;;;;;;2.90;2.00;;;9.60;99.90;;;;;;5077718;28;20491;-81
2023/01/11 03:18:04;;;;;;;3.10;2.38;;;9.60;99.90;;;;;;5077196;28;20512;-83
2023/01/11 03:20:36;;;;;;;3.00;2.30;;;9.60;99.90;;;;;;5077989;28;20127;-79
2023/01/11 03:23:32;;;;;;;2.85;2.13;;;9.60;99.90;;;;;;5075283;28;20045;-78
2023/01/11 03:26:17;;;;;;;3.15;2.38;;;9.60;99.90;;;;;;5061442;28;20058;-77
2023/01/11 03:29:28;;;;;;;3.45;2.20;;;9.70;99.90;;;;;;5075580;28;20060;-78
2023/01/11 03:32:27;;;;;;;3.08;2.42;;;9.70;99.90;;;;;;5070263;28;20057;-78
2023/01/11 03:35:11;;;;;;;3.20;2.30;;;9.70;99.90;;;;;;5073717;28;20091;-80
2023/01/11 03:37:41;;;;;;;2.60;1.67;;;9.70;99.90;;;;;;5061250;28;20044;-80
2023/01/11 03:40:19;;;;;;;3.17;2.28;;;9.70;99.90;;;;;;5058674;28;20068;-80
2023/01/11 03:45:38;;;;;;;3.20;1.85;;;9.70;99.90;;;;;;5077006;28;20052;-78
2023/01/11 03:48:07;;;;;;;3.28;2.22;;;9.70;99.90;;;;;;5076112;28;20058;-78
2023/01/11 03:50:33;;;;;;;4.07;2.25;;;9.80;99.90;;;;;;5077863;28;20080;-80
2023/01/11 03:53:02;;;;;;;3.65;2.50;;;9.80;99.90;;;;;;5075176;28;20088;-80
2023/01/11 03:55:32;;;;;;;2.70;2.08;;;9.80;99.90;;;;;;5077829;28;20436;-78
2023/01/11 03:57:58;;;;;;;3.08;2.33;;;9.80;99.90;;;;;;5075609;28;20056;-78
2023/01/11 04:00:26;;;;;;;3.00;2.05;;;9.80;99.90;;;;;;5060394;28;20078;-80
2023/01/11 04:02:52;;;;;;;3.35;2.22;;;9.80;99.90;;;;;;5077327;28;20083;-80
2023/01/11 04:05:19;;;;;;;3.38;2.17;;;9.80;99.90;;;;;;5075614;28;20051;-83
2023/01/11 04:07:45;;;;;;;3.15;2.25;;;9.80;99.90;;;;;;5077330;28;20048;-83
2023/01/11 04:10:10;;;;;;;2.33;1.77;;;9.80;99.90;;;;;;5070938;28;20048;-81
2023/01/11 04:12:36;;;;;;;4.32;1.67;;;9.90;99.90;;;;;;5074928;28;20213;-77
2023/01/11 04:15:04;;;;;;;2.47;1.77;;;9.90;99.90;;;;;;5076342;28;20100;-78
2023/01/11 04:17:30;;;;;;;2.42;1.65;;;9.90;99.90;;;;;;5077156;28;20423;-79
2023/01/11 04:19:56;;;;;;;2.42;1.83;;;10.00;99.90;;;;;;5077001;28;20108;-77
2023/01/11 04:22:21;;;;;;;3.60;1.90;;;10.00;99.90;;;;;;5075619;28;20080;-79
2023/01/11 04:24:47;;;;;;;2.92;1.60;;;10.00;99.90;;;;;;5077316;28;20071;-82
2023/01/11 04:27:13;;;;;;;2.63;1.67;;;10.00;99.90;;;;;;5075075;28;20067;-81
2023/01/11 04:29:38;;;;;;;2.33;1.60;;;10.00;99.90;;;;;;5060410;28;20037;-82
2023/01/11 04:32:04;;;;;;;2.30;1.60;;;10.10;99.90;;;;;;5075132;28;20536;-81
2023/01/11 04:34:30;;;;;;;2.80;1.70;;;10.00;99.90;;;;;;5077037;28;20435;-83
2023/01/11 04:36:56;;;;;;;2.28;1.30;;;10.10;99.90;;;;;;5076224;28;20052;-78
2023/01/11 04:39:21;;;;;;;2.70;1.30;;;10.10;99.90;;;;;;5074097;28;20040;-79
2023/01/11 04:44:31;;;;;;;2.03;1.30;;;10.10;99.90;;;;;;5074585;28;20052;-80
2023/01/11 04:46:57;;;;;;;2.42;1.48;;;10.10;99.90;;;;;;5077791;28;20104;-81
2023/01/11 04:49:22;;;;;;;2.00;1.40;;;10.00;99.90;;;;;;5078772;28;20044;-82
2023/01/11 04:51:48;;;;;;;2.17;1.38;;;10.10;99.90;;;;;;5080651;28;20056;-78
2023/01/11 04:54:15;;;;;;;2.17;1.50;;;10.10;99.90;;;;;;5061498;28;20048;-80
2023/01/11 04:56:41;;;;;;;2.55;1.30;;;10.20;99.90;;;;;;5078863;28;20052;-82
2023/01/11 04:59:06;;;;;;;2.35;1.50;;;10.10;99.90;;;;;;5063937;28;20113;-79
2023/01/11 05:01:32;;;;;;;2.35;1.38;;;10.10;99.90;;;;;;5077877;28;20056;-79
2023/01/11 05:03:58;;;;;;;2.55;1.58;;;10.10;99.90;;;;;;5080531;28;20048;-80
2023/01/11 05:06:24;;;;;;;2.20;1.40;;;10.10;99.90;;;;;;5061877;28;20096;-81
2023/01/11 05:08:50;;;;;;;2.88;1.50;;;10.10;99.90;;;;;;5063897;28;20044;-82
2023/01/11 05:11:17;;;;;;;3.08;2.30;;;10.20;99.90;;;;;;5077955;28;20447;-84
2023/01/11 05:13:44;;;;;;;3.17;1.88;;;10.20;99.90;;;;;;5061900;28;20043;-82
2023/01/11 05:16:23;;;;;;;2.83;1.90;;;10.20;99.90;;;;;;5063736;28;20132;-80
2023/01/11 05:18:57;;;;;;;3.15;1.88;;;10.30;99.90;;;;;;5061495;28;20047;-86
2023/01/11 05:21:26;;;;;;;4.00;2.05;;;10.30;99.90;;;;;;5063384;28;20052;-86
2023/01/11 05:23:53;;;;;;;4.25;2.38;;;10.30;99.90;;;;;;5078681;28;20134;-86
2023/01/11 05:26:30;;;;;;;4.03;2.47;;;10.30;99.90;;;;;;5079334;28;20053;-79
2023/01/11 05:28:58;;;;;;;4.32;2.22;;;10.30;99.90;;;;;;5080161;28;20050;-81
2023/01/11 05:31:24;;;;;;;4.05;2.67;;;10.30;99.90;;;;;;5077573;28;20084;-83
2023/01/11 05:33:50;;;;;;;3.92;2.40;;;10.30;99.90;;;;;;5063552;28;20076;-81
2023/01/11 05:36:19;;;;;;;3.72;2.38;;;10.30;99.90;;;;;;5061164;28;20056;-80
2023/01/11 05:38:47;;;;;;;4.30;2.67;;;10.30;99.90;;;;;;5079550;28;20044;-86
2023/01/11 05:41:13;;;;;;;3.80;2.30;;;10.30;99.90;;;;;;5062401;28;20055;-83
2023/01/11 05:46:25;;;;;;;5.25;2.60;;;10.30;99.90;;;;;;5079803;28;20053;-83
2023/01/11 05:48:51;;;;;;;5.85;2.80;;;10.30;99.90;;;;;;5077444;28;20100;-81
2023/01/11 05:51:17;;;;;;;6.07;2.95;;;10.30;99.90;;;;;;5079904;28;20584;-85
2023/01/11 05:53:42;;;;;;;9.55;3.15;;;10.30;99.90;;;;;;5079185;28;20061;-82
2023/01/11 05:56:08;;;;;;;7.15;2.75;;;10.30;99.90;;;;;;5079134;28;20071;-87
2023/01/11 05:58:34;;;;;;;5.72;2.80;;;10.30;99.90;;;;;;5076160;28;20056;-79
2023/01/11 06:00:59;;;;;;;7.95;2.60;;;10.30;99.90;;;;;;5060826;28;20185;-83
2023/01/11 06:03:25;;;;;;;9.02;2.90;;;10.20;99.90;;;;;;5063108;28;20060;-82
2023/01/11 06:05:52;;;;;;;7.97;2.75;;;10.20;99.90;;;;;;5061789;28;20032;-81
2023/01/11 06:08:18;;;;;;;9.65;2.35;;;10.20;99.90;;;;;;5081905;28;20100;-79
2023/01/11 06:10:52;;;;;;;8.05;2.40;;;10.20;99.90;;;;;;5062537;28;20048;-80
2023/01/11 06:13:27;;;;;;;4.75;2.83;;;10.20;99.90;;;;;;5078423;28;20047;-80
2023/01/11 06:16:00;;;;;;;8.18;3.00;;;10.20;99.90;;;;;;5080048;28;20101;-80
2023/01/11 06:18:30;;;;;;;10.05;2.70;;;10.10;99.90;;;;;;5077147;28;20543;-85
2023/01/11 06:20:57;;;;;;;9.68;3.00;;;10.20;99.90;;;;;;5079586;28;20052;-79
2023/01/11 06:23:23;;;;;;;9.00;2.70;;;10.20;99.90;;;;;;5078559;28;20045;-78
2023/01/11 06:25:50;;;;;;;11.45;3.90;;;10.20;99.90;;;;;;5080663;28;20048;-77
2023/01/11 06:28:16;;;;;;;8.10;2.90;;;10.20;99.90;;;;;;5076341;28;20044;-82
2023/01/11 06:30:41;;;;;;;5.13;2.17;;;10.20;99.90;;;;;;5077367;28;20089;-81
2023/01/11 06:33:07;;;;;;;8.63;2.67;;;10.20;99.90;;;;;;5045281;28;20052;-80
2023/01/11 06:35:40;;;;;;;7.85;3.17;;;10.20;99.90;;;;;;5076569;28;20080;-79
2023/01/11 06:38:07;;;;;;;11.65;3.28;;;10.20;99.90;;;;;;5078470;28;20036;-86
2023/01/11 06:40:34;;;;;;;10.60;2.60;;;10.20;99.90;;;;;;5076402;28;20056;-83
2023/01/11 06:42:59;;;;;;;6.13;2.40;;;10.10;99.90;;;;;;5078560;28;20124;-81
2023/01/11 06:45:25;;;;;;;6.82;2.13;;;10.10;99.90;;;;;;5077510;28;20155;-77
2023/01/11 06:47:51;;;;;;;10.05;2.40;;;10.10;99.90;;;;;;5077353;28;20049;-81
2023/01/11 06:50:17;;;;;;;7.88;2.13;;;10.10;99.90;;;;;;5077115;28;20075;-82
2023/01/11 06:52:42;;;;;;;8.15;2.28;;;10.00;99.90;;;;;;5074554;28;20067;-81
2023/01/11 06:55:08;;;;;;;10.02;2.75;;;10.00;99.90;;;;;;5078246;28;20127;-78
2023/01/11 06:57:34;;;;;;;9.57;2.38;;;10.00;99.90;;;;;;5076193;28;20048;-77
2023/01/11 07:00:00;;;;;;;10.13;2.90;;;10.00;99.90;;;;;;5077965;28;20055;-78
2023/01/11 07:02:26;;;;;;;11.77;2.30;;;10.00;99.90;;;;;;5076636;28;20076;-78
2023/01/11 07:04:51;;;;;;;8.43;2.30;;;10.00;99.90;;;;;;5075286;28;20048;-78
2023/01/11 07:07:17;;;;;;;8.52;2.17;;;10.00;99.90;;;;;;5077773;28;20591;-77
2023/01/11 07:09:43;;;;;;;9.43;2.45;;;10.00;99.90;;;;;;5075730;28;20139;-77
2023/01/11 07:12:09;;;;;;;10.32;2.22;;;9.90;99.90;;;;;;5061501;28;20129;-76
2023/01/11 07:14:34;;;;;;;11.05;2.35;;;9.90;99.90;;;;;;5075618;28;20092;-76
2023/01/11 07:17:00;;;;;;;8.57;2.60;;;9.90;99.90;;;;;;5077920;28;20060;-77
2023/01/11 07:19:26;;;;;;;6.95;2.20;;;9.90;99.90;;;;;;5076146;28;20106;-76
2023/01/11 07:21:51;;;;;;;9.60;2.03;;;9.80;99.90;;;;;;5077157;28;20089;-78
2023/01/11 07:24:18;;;;;;;9.30;2.60;;;9.80;99.90;;;;;;5077456;28;20056;-76
2023/01/11 07:26:44;;;;;;;10.05;2.38;;;9.80;99.90;;;;;;5077640;28;20041;-77
2023/01/11 07:29:10;;;;;;;7.25;2.15;;;9.80;99.90;;;;;;5061497;28;20059;-77
2023/01/11 07:31:36;;;;;;;10.30;2.40;;;9.80;99.90;;;;;;5075076;28;20555;-78
2023/01/11 07:34:03;;;;;;;9.82;2.40;;;9.70;99.90;;;;;;5077547;28;20049;-78
2023/01/11 07:36:28;;;;;;;9.32;2.42;;;9.70;99.90;;;;;;5077173;28;20721;-77
2023/01/11 07:38:55;;;;;;;11.93;2.65;;;9.70;99.90;;;;;;5077322;28;20071;-76
2023/01/11 07:44:05;;;;;;;8.68;2.50;;;9.80;99.90;;;;;;5075976;28;20455;-77
2023/01/11 07:46:31;;;;;;;12.75;2.85;;;9.70;99.90;;;;;;5061153;28;20044;-77
2023/01/11 07:48:56;;;;;;;10.85;3.30;;;9.70;99.90;;;;;;5073434;28;20052;-79
2023/01/11 07:51:23;;;;;;;8.77;2.53;;;9.80;99.90;;;;;;5077633;28;20140;-77
2023/01/11 07:53:49;;;;;;;7.95;2.92;;;9.80;99.90;;;;;;5076068;28;20100;-77
2023/01/11 07:56:15;;;;;;;7.95;2.40;;;9.80;99.90;;;;;;5076564;28;20041;-77
2023/01/11 07:58:41;;;;;;;10.10;2.75;;;9.80;99.90;;;;;;5077447;28;20087;-77
2023/01/11 08:01:06;;;;;;;9.93;2.88;;;9.90;99.90;;;;;;5075159;28;20059;-78
2023/01/11 08:03:32;;;;;;;9.77;2.83;;;9.90;99.90;;;;;;5077863;28;20056;-77
2023/01/11 08:05:58;;;;;;;13.32;3.05;;;9.80;99.90;;;;;;5058476;28;20044;-77
2023/01/11 08:08:23;;;;;;;8.77;2.40;;;9.80;99.90;;;;;;5060951;28;20036;-78
2023/01/11 08:16:18;;;;;;;6.93;2.05;;;9.80;99.90;;;;;;5075252;28;20143;-77
2023/01/11 08:18:44;;;;;;;11.23;2.40;;;9.80;99.90;;;;;;5074982;28;20114;-80
2023/01/11 08:21:09;;;;;;;7.93;2.50;;;9.80;99.90;;;;;;5070139;28;20053;-78
2023/01/11 08:23:35;;;;;;;8.90;2.75;;;9.90;99.90;;;;;;5072936;28;20049;-78
2023/01/11 08:26:01;;;;;;;8.60;2.75;;;9.80;99.90;;;;;;5079776;28;20109;-85
2023/01/11 08:28:27;;;;;;;10.80;2.58;;;9.80;99.90;;;;;;5063202;28;20135;-84
2023/01/11 08:30:52;;;;;;;7.80;2.13;;;9.70;99.90;;;;;;5061324;28;20051;-84
2023/01/11 08:33:18;;;;;;;13.90;3.15;;;9.70;99.90;;;;;;5080146;28;20056;-84
2023/01/11 08:35:44;;;;;;;10.38;2.30;;;9.60;99.90;;;;;;5059944;28;20048;-85
2023/01/11 08:38:10;;;;;;;10.10;2.03;;;9.60;99.90;;;;;;5080654;28;20492;-84
2023/01/11 08:40:36;;;;;;;9.30;2.00;;;9.60;99.90;;;;;;5062246;28;20098;-85
2023/01/11 08:43:02;;;;;;;6.78;1.92;;;9.60;99.90;;;;;;5078072;28;20523;-82
2023/01/11 08:45:28;;;;;;;7.95;1.55;;;9.50;99.90;;;;;;5079903;28;20056;-81
2023/01/11 08:47:54;;;;;;;8.32;1.85;;;9.50;99.90;;;;;;5079245;28;20061;-81
2023/01/11 08:50:20;;;;;;;6.97;1.52;;;9.40;99.90;;;;;;5063355;28;20044;-85
2023/01/11 08:52:47;;;;;;;4.55;1.13;;;9.40;99.90;;;;;;5077636;28;20419;-81
2023/01/11 08:55:12;;;;;;;9.68;1.85;;;9.30;99.90;;;;;;5063560;28;20076;-80
2023/01/11 08:57:38;;;;;;;6.13;1.55;;;9.30;99.90;;;;;;5060911;28;20045;-76
2023/01/11 09:00:06;;;;;;;7.13;1.73;;;9.30;99.90;;;;;;5060243;28;20178;-84
2023/01/11 09:02:32;;;;;;;6.72;1.80;;;9.30;99.90;;;;;;5060863;28;20045;-82
2023/01/11 09:04:58;;;;;;;15.90;2.47;;;9.20;99.90;;;;;;5078666;28;20044;-83
2023/01/11 09:07:23;;;;;;;5.05;1.35;;;9.20;99.90;;;;;;5079659;28;20052;-85
2023/01/11 09:09:50;;;;;;;7.32;1.25;;;9.20;99.90;;;;;;5077642;28;20063;-76
2023/01/11 09:12:17;;;;;;;11.32;2.10;;;9.20;99.90;;;;;;5080216;28;20056;-84
2023/01/11 09:14:42;;;;;;;6.43;1.70;;;9.10;99.90;;;;;;5078700;28;20063;-78
2023/01/11 09:17:08;;;;;;;6.22;1.65;;;9.10;99.90;;;;;;5081072;28;20101;-83
2023/01/11 09:19:34;;;;;;;8.65;2.05;;;9.10;99.90;;;;;;5078604;28;20171;-75
2023/01/11 09:22:01;;;;;;;5.97;1.60;;;9.10;99.90;;;;;;5078445;28;20071;-81
2023/01/11 09:24:28;;;;;;;5.47;1.65;;;9.10;99.90;;;;;;5079774;28;20304;-77
2023/01/11 09:26:57;;;;;;;6.63;1.65;;;9.10;99.90;;;;;;5060728;28;20037;-77
2023/01/11 09:29:23;;;;;;;5.72;1.33;;;9.10;99.90;;;;;;5081162;28;20052;-76
2023/01/11 09:31:48;;;;;;;5.65;1.73;;;9.10;99.90;;;;;;5077138;28;20074;-78
2023/01/11 09:34:14;;;;;;;7.78;1.80;;;9.00;99.90;;;;;;5080464;28;20044;-77
2023/01/11 09:36:41;;;;;;;9.13;1.60;;;9.00;99.90;;;;;;5061203;28;20050;-76
2023/01/11 09:39:09;;;;;;;6.68;1.73;;;9.00;99.90;;;;;;5080011;28;20044;-77
2023/01/11 09:41:43;;;;;;;4.03;1.50;;;9.00;99.90;;;;;;5079358;28;20108;-76
2023/01/11 09:44:18;;;;;;;6.20;2.05;;;9.00;99.90;;;;;;5076422;28;20078;-77
2023/01/11 09:46:50;;;;;;;7.40;1.80;;;9.00;99.90;;;;;;5078958;28;20053;-77
2023/01/11 09:49:26;;;;;;;5.20;1.60;;;9.00;99.90;;;;;;5077510;28;20131;-76
2023/01/11 09:52:04;;;;;;;8.70;2.00;;;9.00;99.90;;;;;;5059123;28;20268;-78
2023/01/11 09:54:30;;;;;;;5.70;1.80;;;9.00;99.90;;;;;;5078919;28;20037;-80
2023/01/11 09:57:17;;;;;;;8.55;1.95;;;9.10;99.90;;;;;;5059885;28;20056;-77
2023/01/11 09:59:55;;;;;;;9.07;2.50;;;9.10;99.90;;;;;;5079170;28;20044;-77
2023/01/11 10:02:40;;;;;;;5.63;1.60;;;9.10;99.90;;;;;;5077786;28;20048;-76
2023/01/11 10:05:28;;;;;;;7.32;2.20;;;9.00;99.90;;;;;;5076613;28;20070;-75
2023/01/11 10:08:07;;;;;;;5.82;1.70;;;9.00;99.90;;;;;;5080273;28;20566;-80
2023/01/11 10:10:42;;;;;;;4.60;1.50;;;9.00;99.90;;;;;;5060185;28;20100;-76
2023/01/11 10:13:31;;;;;;;11.18;2.92;;;8.90;99.90;;;;;;5079143;28;20052;-78
2023/01/11 10:16:09;;;;;;;6.07;1.65;;;8.90;99.90;;;;;;5064322;28;20057;-76
2023/01/11 10:18:45;;;;;;;7.57;1.75;;;8.90;99.90;;;;;;5076342;28;20053;-77
2023/01/11 10:21:39;;;;;;;8.20;1.98;;;8.80;99.90;;;;;;5078504;28;20151;-79
2023/01/11 10:24:30;;;;;;;5.65;1.60;;;8.80;99.90;;;;;;5077093;28;20579;-79
2023/01/11 10:26:58;;;;;;;9.52;2.05;;;8.80;99.90;;;;;;5069987;28;20040;-77
2023/01/11 10:29:46;;;;;;;8.50;2.63;;;8.80;99.90;;;;;;5078078;28;20119;-84
2023/01/11 10:35:46;;;;;;;7.18;1.60;;;9.00;99.90;;;;;;5076057;28;20079;-78
2023/01/11 10:39:06;;;;;;;9.10;2.20;;;9.20;99.90;;;;;;5078374;28;20057;-82
2023/01/11 10:41:44;;;;;;;7.20;2.25;;;9.60;99.90;;;;;;5070195;28;20072;-83
2023/01/11 10:44:27;;;;;;;8.10;2.00;;;9.60;99.90;;;;;;5075748;28;20100;-77
2023/01/11 10:46:55;;;;;;;14.18;2.28;;;9.50;99.90;;;;;;5078302;28;20056;-80
2023/01/11 10:49:27;;;;;;;5.90;1.75;;;9.40;99.90;;;;;;5075637;28;20587;-78
2023/01/11 10:51:56;;;;;;;6.80;2.03;;;9.50;99.90;;;;;;5075376;28;20041;-75
2023/01/11 10:54:30;;;;;;;8.43;2.70;;;9.60;99.90;;;;;;5077338;28;20048;-86
2023/01/11 10:57:19;;;;;;;5.80;1.73;;;9.70;99.90;;;;;;5075252;28;20159;-76
2023/01/11 10:59:59;;;;;;;7.90;2.10;;;9.70;99.90;;;;;;5077876;28;20048;-80
2023/01/11 11:02:54;;;;;;;7.25;1.90;;;9.60;99.90;;;;;;5076637;28;20056;-78
2023/01/11 11:05:37;;;;;;;7.45;1.88;;;9.50;99.90;;;;;;5075623;28;20084;-77
2023/01/11 11:08:38;;;;;;;7.70;2.50;;;9.40;99.90;;;;;;5077898;28;20052;-81
2023/01/11 11:11:25;;;;;;;10.90;2.22;;;9.40;99.90;;;;;;5044606;28;20044;-87
2023/01/11 11:13:58;;;;;;;7.60;2.00;;;9.40;99.90;;;;;;5074776;28;20437;-77
2023/01/11 11:16:23;;;;;;;8.25;2.05;;;9.50;99.90;;;;;;5077331;28;20045;-81
2023/01/11 11:18:51;;;;;;;12.15;2.30;;;9.40;99.90;;;;;;5075128;28;20072;-77
2023/01/11 11:21:24;;;;;;;6.22;2.15;;;9.60;99.90;;;;;;5077582;28;20051;-79
2023/01/11 11:24:00;;;;;;;7.20;2.50;;;9.60;99.90;;;;;;5059205;28;20053;-82
2023/01/11 11:26:50;;;;;;;6.75;2.45;;;9.60;99.90;;;;;;5076781;28;20048;-82
2023/01/11 11:29:22;;;;;;;7.47;1.95;;;9.70;99.90;;;;;;5077931;28;20048;-80
2023/01/11 11:31:49;;;;;;;7.72;2.33;;;9.70;99.90;;;;;;5073955;28;20044;-80
2023/01/11 11:34:18;;;;;;;6.32;2.08;;;9.70;99.90;;;;;;5060487;28;20045;-79
2023/01/11 11:36:47;;;;;;;8.32;2.50;;;9.60;99.90;;;;;;5076167;28;20051;-80
2023/01/11 11:39:29;;;;;;;9.25;2.60;;;9.50;99.90;;;;;;5073832;28;20123;-78
2023/01/11 11:42:07;;;;;;;8.90;2.13;;;10.00;99.90;;;;;;5070990;28;20299;-80
2023/01/11 11:44:33;;;;;;;6.88;2.47;;;9.40;99.90;;;;;;5074442;28;20084;-77
2023/01/11 11:47:13;;;;;;;7.25;2.25;;;9.40;99.90;;;;;;5059999;28;20048;-77
2023/01/11 11:49:40;;;;;;;6.93;2.55;;;9.40;99.90;;;;;;5076251;28;20052;-78
2023/01/11 11:52:12;;;;;;;5.00;2.22;;;9.50;99.90;;;;;;5075592;28;20063;-78
2023/01/11 11:54:42;;;;;;;9.30;2.47;;;9.50;99.90;;;;;;5077362;28;20118;-83
2023/01/11 11:57:19;;;;;;;6.38;2.10;;;9.60;99.90;;;;;;5075477;28;20051;-80
2023/01/11 11:59:47;;;;;;;7.88;2.97;;;9.70;99.90;;;;;;5065128;28;20056;-83
2023/01/11 12:02:29;;;;;;;7.07;2.35;;;9.70;99.90;;;;;;5077119;28;20118;-86
2023/01/11 12:04:58;;;;;;;9.27;2.47;;;9.60;99.90;;;;;;5061974;28;20096;-88
2023/01/11 12:07:33;;;;;;;7.97;2.53;;;9.60;99.90;;;;;;5064515;28;20049;-81
2023/01/11 12:10:02;;;;;;;5.13;2.00;;;9.60;99.90;;;;;;5078850;28;20059;-84
2023/01/11 12:12:27;;;;;;;7.00;2.25;;;9.50;99.90;;;;;;5081235;28;20079;-82
2023/01/11 12:15:15;;;;;;;5.93;2.28;;;9.50;99.90;;;;;;5062446;28;20045;-81
2023/01/11 12:17:42;;;;;;;9.07;2.65;;;9.40;99.90;;;;;;5078433;28;20033;-84
2023/01/11 12:20:37;;;;;;;6.90;2.10;;;9.40;99.90;;;;;;5064367;28;20093;-85
2023/01/11 12:23:20;;;;;;;7.20;1.98;;;9.50;99.90;;;;;;5061358;28;20048;-82
2023/01/11 12:25:54;;;;;;;6.85;2.00;;;9.60;99.90;;;;;;5063803;28;20036;-79
2023/01/11 12:28:45;;;;;;;8.50;1.98;;;9.70;99.90;;;;;;5080751;28;20095;-80
2023/01/11 12:31:20;;;;;;;5.82;1.75;;;9.90;99.90;;;;;;5060670;28;20449;-82
2023/01/11 12:34:01;;;;;;;6.07;2.20;;;10.00;99.90;;;;;;5080360;28;20060;-81
2023/01/11 12:36:54;;;;;;;7.00;1.92;;;9.90;99.90;;;;;;5062133;28;20068;-76
2023/01/11 12:39:57;;;;;;;9.93;2.20;;;9.90;99.90;;;;;;5078700;28;20053;-81
2023/01/11 12:42:41;;;;;;;6.95;1.80;;;9.90;99.90;;;;;;5080736;28;20468;-84
2023/01/11 12:45:28;;;;;;;7.97;1.85;;;9.80;99.90;;;;;;5079168;28;20052;-85
2023/01/11 12:48:09;;;;;;;5.28;1.55;;;9.70;99.90;;;;;;5077732;28;20053;-81
2023/01/11 12:50:58;;;;;;;7.43;2.20;;;9.70;99.90;;;;;;5080245;28;20060;-80
2023/01/11 12:53:39;;;;;;;8.73;1.95;;;9.60;99.90;;;;;;5052907;28;20143;-85
2023/01/11 12:56:42;;;;;;;10.38;1.73;;;9.60;99.90;;;;;;5062620;28;20044;-79
2023/01/11 12:59:36;;;;;;;5.53;1.58;;;9.70;99.90;;;;;;5076238;28;20117;-82
2023/01/11 13:02:13;;;;;;;5.38;1.80;;;9.70;99.90;;;;;;5098286;28;20058;-80
2023/01/11 13:04:44;;;;;;;6.55;1.50;;;9.70;99.90;;;;;;5079852;28;20052;-84
2023/01/11 13:07:35;;;;;;;7.35;1.83;;;9.70;99.90;;;;;;5080898;28;20087;-79
2023/01/11 13:10:00;;;;;;;11.40;2.10;;;9.60;99.90;;;;;;5057471;28;20056;-77
2023/01/11 13:12:44;;;;;;;10.20;1.63;;;9.60;99.90;;;;;;5059639;28;20458;-84
2023/01/11 13:15:31;;;;;;;7.13;2.17;;;9.60;99.90;;;;;;5057629;28;20079;-79
2023/01/11 13:18:17;;;;;;;9.07;2.08;;;9.60;99.90;;;;;;5077684;28;20059;-82
2023/01/11 13:20:56;;;;;;;6.35;1.80;;;9.50;99.90;;;;;;5062841;28;20057;-80
2023/01/11 13:23:42;;;;;;;5.55;1.67;;;9.50;99.90;;;;;;5077122;28;20153;-80
2023/01/11 13:26:24;;;;;;;9.25;1.80;;;9.70;99.90;;;;;;5079334;28;20064;-79
2023/01/11 13:29:19;;;;;;;5.90;1.65;;;9.90;99.90;;;;;;5062787;28;20040;-79
2023/01/11 13:31:47;;;;;;;5.57;1.40;;;9.90;99.90;;;;;;5076664;28;20044;-82
2023/01/11 13:34:24;;;;;;;5.18;1.77;;;9.90;99.90;;;;;;5079738;28;20060;-79
2023/01/11 13:37:01;;;;;;;10.00;2.85;;;9.80;99.90;;;;;;5079362;28;20051;-78
2023/01/11 13:39:42;;;;;;;6.10;1.70;;;9.70;99.90;;;;;;5060845;28;20053;-79
2023/01/11 13:42:19;;;;;;;10.40;2.20;;;9.60;99.90;;;;;;5063130;28;20095;-82
2023/01/11 13:44:59;;;;;;;6.47;1.58;;;9.50;99.90;;;;;;5077090;28;20654;-80
2023/01/11 13:47:34;;;;;;;6.22;1.75;;;9.40;99.90;;;;;;5078667;28;20049;-78
2023/01/11 13:50:06;;;;;;;6.32;1.80;;;9.40;99.90;;;;;;5063126;28;20086;-83
2023/01/11 13:52:44;;;;;;;10.73;2.00;;;9.40;99.90;;;;;;5077478;28;20108;-83